sensor_id;sensor_type;location;lat;lon;timestamp;P1;durP1;ratioP1;P2;durP2;ratioP2
70667;SDS011;58242;51.250;-1.118;2023-06-22T00:00:50;2.10;;;2.00;;
70667;SDS011;58242;51.250;-1.118;2023-06-22T00:03:20;2.72;;;2.53;;
70667;SDS011;58242;51.250;-1.118;2023-06-22T00:05:47;2.80;;;2.60;;
70667;SDS011;58242;51.250;-1.118;2023-06-22T00:08:13;3.45;;;2.60;;
70667;SDS011;58242;51.250;-1.118;2023-06-22T00:10:39;2.40;;;2.20;;
70667;SDS011;58242;51.250;-1.118;2023-06-22T00:13:05;2.72;;;2.53;;
70667;SDS011;58242;51.250;-1.118;2023-06-22T00:15:32;2.22;;;2.10;;
70667;SDS011;58242;51.250;-1.118;2023-06-22T00:17:57;2.25;;;2.10;;
70667;SDS011;58242;51.250;-1.118;2023-06-22T00:20:23;2.10;;;2.00;;
70667;SDS011;58242;51.250;-1.118;2023-06-22T00:22:52;2.50;;;2.40;;
70667;SDS011;58242;51.250;-1.118;2023-06-22T00:25:18;2.17;;;2.08;;
70667;SDS011;58242;51.250;-1.118;2023-06-22T00:27:44;2.38;;;2.28;;
70667;SDS011;58242;51.250;-1.118;2023-06-22T00:30:09;2.40;;;2.30;;
70667;SDS011;58242;51.250;-1.118;2023-06-22T00:32:35;2.58;;;2.38;;
70667;SDS011;58242;51.250;-1.118;2023-06-22T00:35:00;2.28;;;2.10;;
70667;SDS011;58242;51.250;-1.118;2023-06-22T00:37:26;2.35;;;2.20;;
70667;SDS011;58242;51.250;-1.118;2023-06-22T00:39:54;2.28;;;2.08;;
70667;SDS011;58242;51.250;-1.118;2023-06-22T00:42:20;2.60;;;2.40;;
70667;SDS011;58242;51.250;-1.118;2023-06-22T00:44:45;2.65;;;2.42;;
70667;SDS011;58242;51.250;-1.118;2023-06-22T00:47:11;2.92;;;2.72;;
70667;SDS011;58242;51.250;-1.118;2023-06-22T00:49:39;2.78;;;2.42;;
70667;SDS011;58242;51.250;-1.118;2023-06-22T00:52:05;2.53;;;2.33;;
70667;SDS011;58242;51.250;-1.118;2023-06-22T00:54:39;2.65;;;2.38;;
70667;SDS011;58242;51.250;-1.118;2023-06-22T00:57:10;2.75;;;2.55;;
70667;SDS011;58242;51.250;-1.118;2023-06-22T00:59:37;2.50;;;2.30;;
70667;SDS011;58242;51.250;-1.118;2023-06-22T01:02:04;2.70;;;2.50;;
70667;SDS011;58242;51.250;-1.118;2023-06-22T01:04:34;2.30;;;2.10;;
70667;SDS011;58242;51.250;-1.118;2023-06-22T01:12:13;2.58;;;2.40;;
70667;SDS011;58242;51.250;-1.118;2023-06-22T01:14:50;2.20;;;2.10;;
70667;SDS011;58242;51.250;-1.118;2023-06-22T01:17:20;2.20;;;2.10;;
70667;SDS011;58242;51.250;-1.118;2023-06-22T01:19:48;2.55;;;2.10;;
70667;SDS011;58242;51.250;-1.118;2023-06-22T01:22:20;2.47;;;2.28;;
70667;SDS011;58242;51.250;-1.118;2023-06-22T01:24:55;2.35;;;2.25;;
70667;SDS011;58242;51.250;-1.118;2023-06-22T01:30:06;2.15;;;2.00;;
70667;SDS011;58242;51.250;-1.118;2023-06-22T01:32:36;2.70;;;2.50;;
70667;SDS011;58242;51.250;-1.118;2023-06-22T01:35:03;2.55;;;2.35;;
70667;SDS011;58242;51.250;-1.118;2023-06-22T01:37:34;2.17;;;2.05;;
70667;SDS011;58242;51.250;-1.118;2023-06-22T01:40:02;2.30;;;2.20;;
70667;SDS011;58242;51.250;-1.118;2023-06-22T01:42:30;1.77;;;1.67;;
70667;SDS011;58242;51.250;-1.118;2023-06-22T01:44:56;2.40;;;2.20;;
70667;SDS011;58242;51.250;-1.118;2023-06-22T01:47:23;3.47;;;2.65;;
70667;SDS011;58242;51.250;-1.118;2023-06-22T01:49:49;2.40;;;2.30;;
70667;SDS011;58242;51.250;-1.118;2023-06-22T01:52:18;2.95;;;2.50;;
70667;SDS011;58242;51.250;-1.118;2023-06-22T01:54:46;2.75;;;2.55;;
70667;SDS011;58242;51.250;-1.118;2023-06-22T01:57:12;2.92;;;2.72;;
70667;SDS011;58242;51.250;-1.118;2023-06-22T01:59:39;2.40;;;2.30;;
70667;SDS011;58242;51.250;-1.118;2023-06-22T02:02:25;2.60;;;2.40;;
70667;SDS011;58242;51.250;-1.118;2023-06-22T02:05:05;2.92;;;2.72;;
70667;SDS011;58242;51.250;-1.118;2023-06-22T02:07:33;2.33;;;2.22;;
70667;SDS011;58242;51.250;-1.118;2023-06-22T02:12:26;2.58;;;2.38;;
70667;SDS011;58242;51.250;-1.118;2023-06-22T02:14:54;2.53;;;2.38;;
70667;SDS011;58242;51.250;-1.118;2023-06-22T02:17:19;2.78;;;2.50;;
70667;SDS011;58242;51.250;-1.118;2023-06-22T02:19:45;2.30;;;2.20;;
70667;SDS011;58242;51.250;-1.118;2023-06-22T02:22:11;2.70;;;2.50;;
70667;SDS011;58242;51.250;-1.118;2023-06-22T02:24:37;2.60;;;2.40;;
70667;SDS011;58242;51.250;-1.118;2023-06-22T02:27:03;3.05;;;2.85;;
70667;SDS011;58242;51.250;-1.118;2023-06-22T02:29:29;2.53;;;2.33;;
70667;SDS011;58242;51.250;-1.118;2023-06-22T02:31:54;2.25;;;2.15;;
70667;SDS011;58242;51.250;-1.118;2023-06-22T02:34:21;3.13;;;2.78;;
70667;SDS011;58242;51.250;-1.118;2023-06-22T02:36:50;2.40;;;2.20;;
70667;SDS011;58242;51.250;-1.118;2023-06-22T02:39:22;2.80;;;2.60;;
70667;SDS011;58242;51.250;-1.118;2023-06-22T02:41:49;2.38;;;2.20;;
70667;SDS011;58242;51.250;-1.118;2023-06-22T02:44:15;2.92;;;2.72;;
70667;SDS011;58242;51.250;-1.118;2023-06-22T02:46:41;2.63;;;2.42;;
70667;SDS011;58242;51.250;-1.118;2023-06-22T02:49:07;3.08;;;2.88;;
70667;SDS011;58242;51.250;-1.118;2023-06-22T02:51:33;2.40;;;2.17;;
70667;SDS011;58242;51.250;-1.118;2023-06-22T02:53:59;2.15;;;2.03;;
70667;SDS011;58242;51.250;-1.118;2023-06-22T02:56:25;2.40;;;2.20;;
70667;SDS011;58242;51.250;-1.118;2023-06-22T02:58:51;2.60;;;2.40;;
70667;SDS011;58242;51.250;-1.118;2023-06-22T03:01:17;2.90;;;2.70;;
70667;SDS011;58242;51.250;-1.118;2023-06-22T03:03:48;2.90;;;2.63;;
70667;SDS011;58242;51.250;-1.118;2023-06-22T03:06:13;3.00;;;2.80;;
70667;SDS011;58242;51.250;-1.118;2023-06-22T03:08:39;2.67;;;2.47;;
70667;SDS011;58242;51.250;-1.118;2023-06-22T03:11:04;4.20;;;3.42;;
70667;SDS011;58242;51.250;-1.118;2023-06-22T03:13:29;3.45;;;2.90;;
70667;SDS011;58242;51.250;-1.118;2023-06-22T03:15:54;3.38;;;3.13;;
70667;SDS011;58242;51.250;-1.118;2023-06-22T03:18:21;2.63;;;2.42;;
70667;SDS011;58242;51.250;-1.118;2023-06-22T03:20:47;3.08;;;2.55;;
70667;SDS011;58242;51.250;-1.118;2023-06-22T03:23:12;2.92;;;2.70;;
70667;SDS011;58242;51.250;-1.118;2023-06-22T03:25:38;2.58;;;2.40;;
70667;SDS011;58242;51.250;-1.118;2023-06-22T03:28:03;3.45;;;3.20;;
70667;SDS011;58242;51.250;-1.118;2023-06-22T03:30:28;3.30;;;3.00;;
70667;SDS011;58242;51.250;-1.118;2023-06-22T03:32:54;3.58;;;2.75;;
70667;SDS011;58242;51.250;-1.118;2023-06-22T03:35:19;3.33;;;2.67;;
70667;SDS011;58242;51.250;-1.118;2023-06-22T03:37:44;2.30;;;2.20;;
70667;SDS011;58242;51.250;-1.118;2023-06-22T03:40:10;2.70;;;2.50;;
70667;SDS011;58242;51.250;-1.118;2023-06-22T03:42:35;2.92;;;2.70;;
70667;SDS011;58242;51.250;-1.118;2023-06-22T03:45:01;3.15;;;2.88;;
70667;SDS011;58242;51.250;-1.118;2023-06-22T03:47:28;2.85;;;2.65;;
70667;SDS011;58242;51.250;-1.118;2023-06-22T03:49:53;3.22;;;2.97;;
70667;SDS011;58242;51.250;-1.118;2023-06-22T03:52:20;3.55;;;3.25;;
70667;SDS011;58242;51.250;-1.118;2023-06-22T03:54:47;3.50;;;2.90;;
70667;SDS011;58242;51.250;-1.118;2023-06-22T03:57:12;4.47;;;3.72;;
70667;SDS011;58242;51.250;-1.118;2023-06-22T03:59:37;5.15;;;4.03;;
70667;SDS011;58242;51.250;-1.118;2023-06-22T04:02:03;5.47;;;4.55;;
70667;SDS011;58242;51.250;-1.118;2023-06-22T04:04:28;6.30;;;5.13;;
70667;SDS011;58242;51.250;-1.118;2023-06-22T04:06:54;5.93;;;4.60;;
70667;SDS011;58242;51.250;-1.118;2023-06-22T04:09:19;5.57;;;4.95;;
70667;SDS011;58242;51.250;-1.118;2023-06-22T04:11:44;4.53;;;4.13;;
70667;SDS011;58242;51.250;-1.118;2023-06-22T04:14:10;5.97;;;4.28;;
70667;SDS011;58242;51.250;-1.118;2023-06-22T04:16:35;4.70;;;3.63;;
70667;SDS011;58242;51.250;-1.118;2023-06-22T04:19:00;3.30;;;3.10;;
70667;SDS011;58242;51.250;-1.118;2023-06-22T04:21:26;3.17;;;2.97;;
70667;SDS011;58242;51.250;-1.118;2023-06-22T04:23:51;2.50;;;2.40;;
70667;SDS011;58242;51.250;-1.118;2023-06-22T04:26:16;2.67;;;2.47;;
70667;SDS011;58242;51.250;-1.118;2023-06-22T04:28:42;2.58;;;2.38;;
70667;SDS011;58242;51.250;-1.118;2023-06-22T04:31:07;2.83;;;2.63;;
70667;SDS011;58242;51.250;-1.118;2023-06-22T04:33:32;3.03;;;2.78;;
70667;SDS011;58242;51.250;-1.118;2023-06-22T04:35:58;2.47;;;2.28;;
70667;SDS011;58242;51.250;-1.118;2023-06-22T04:38:23;3.40;;;3.10;;
70667;SDS011;58242;51.250;-1.118;2023-06-22T04:40:50;3.03;;;2.75;;
70667;SDS011;58242;51.250;-1.118;2023-06-22T04:43:15;2.70;;;2.50;;
70667;SDS011;58242;51.250;-1.118;2023-06-22T04:45:41;2.20;;;2.10;;
70667;SDS011;58242;51.250;-1.118;2023-06-22T04:48:06;2.92;;;2.72;;
70667;SDS011;58242;51.250;-1.118;2023-06-22T04:50:33;2.33;;;2.22;;
70667;SDS011;58242;51.250;-1.118;2023-06-22T04:52:58;2.20;;;2.10;;
70667;SDS011;58242;51.250;-1.118;2023-06-22T04:55:24;2.08;;;1.98;;
70667;SDS011;58242;51.250;-1.118;2023-06-22T04:57:50;1.90;;;1.80;;
70667;SDS011;58242;51.250;-1.118;2023-06-22T05:00:16;2.67;;;2.53;;
70667;SDS011;58242;51.250;-1.118;2023-06-22T05:02:45;2.47;;;2.38;;
70667;SDS011;58242;51.250;-1.118;2023-06-22T05:05:12;2.47;;;2.38;;
70667;SDS011;58242;51.250;-1.118;2023-06-22T05:07:43;2.35;;;2.25;;
70667;SDS011;58242;51.250;-1.118;2023-06-22T05:10:10;2.30;;;2.20;;
70667;SDS011;58242;51.250;-1.118;2023-06-22T05:12:37;2.50;;;2.40;;
70667;SDS011;58242;51.250;-1.118;2023-06-22T05:15:03;2.05;;;1.95;;
70667;SDS011;58242;51.250;-1.118;2023-06-22T05:17:28;2.35;;;2.25;;
70667;SDS011;58242;51.250;-1.118;2023-06-22T05:19:54;1.95;;;1.85;;
70667;SDS011;58242;51.250;-1.118;2023-06-22T05:22:20;2.08;;;1.98;;
70667;SDS011;58242;51.250;-1.118;2023-06-22T05:24:45;2.10;;;2.00;;
70667;SDS011;58242;51.250;-1.118;2023-06-22T05:27:11;2.30;;;2.20;;
70667;SDS011;58242;51.250;-1.118;2023-06-22T05:29:36;2.10;;;2.00;;
70667;SDS011;58242;51.250;-1.118;2023-06-22T05:32:02;1.98;;;1.88;;
70667;SDS011;58242;51.250;-1.118;2023-06-22T05:34:28;2.70;;;2.60;;
70667;SDS011;58242;51.250;-1.118;2023-06-22T05:36:53;2.10;;;2.00;;
70667;SDS011;58242;51.250;-1.118;2023-06-22T05:39:18;2.53;;;2.42;;
70667;SDS011;58242;51.250;-1.118;2023-06-22T05:41:44;2.72;;;2.63;;
70667;SDS011;58242;51.250;-1.118;2023-06-22T05:44:10;2.40;;;2.30;;
70667;SDS011;58242;51.250;-1.118;2023-06-22T05:46:36;2.55;;;2.45;;
70667;SDS011;58242;51.250;-1.118;2023-06-22T05:49:01;2.35;;;2.25;;
70667;SDS011;58242;51.250;-1.118;2023-06-22T05:51:27;2.45;;;2.35;;
70667;SDS011;58242;51.250;-1.118;2023-06-22T05:53:52;2.03;;;1.92;;
70667;SDS011;58242;51.250;-1.118;2023-06-22T05:56:18;2.30;;;2.20;;
70667;SDS011;58242;51.250;-1.118;2023-06-22T05:58:43;5.43;;;2.45;;
70667;SDS011;58242;51.250;-1.118;2023-06-22T06:01:09;2.10;;;1.98;;
70667;SDS011;58242;51.250;-1.118;2023-06-22T06:03:34;1.85;;;1.75;;
70667;SDS011;58242;51.250;-1.118;2023-06-22T06:06:05;2.33;;;2.22;;
70667;SDS011;58242;51.250;-1.118;2023-06-22T06:08:31;2.70;;;2.60;;
70667;SDS011;58242;51.250;-1.118;2023-06-22T06:10:56;2.30;;;2.20;;
70667;SDS011;58242;51.250;-1.118;2023-06-22T06:13:22;2.55;;;2.45;;
70667;SDS011;58242;51.250;-1.118;2023-06-22T06:15:48;2.40;;;2.30;;
70667;SDS011;58242;51.250;-1.118;2023-06-22T06:18:13;2.65;;;2.47;;
70667;SDS011;58242;51.250;-1.118;2023-06-22T06:20:38;2.20;;;2.10;;
70667;SDS011;58242;51.250;-1.118;2023-06-22T06:23:04;2.20;;;2.10;;
70667;SDS011;58242;51.250;-1.118;2023-06-22T06:25:29;2.10;;;2.00;;
70667;SDS011;58242;51.250;-1.118;2023-06-22T06:27:54;2.47;;;2.38;;
70667;SDS011;58242;51.250;-1.118;2023-06-22T06:30:20;2.47;;;2.28;;
70667;SDS011;58242;51.250;-1.118;2023-06-22T06:32:46;2.38;;;2.20;;
70667;SDS011;58242;51.250;-1.118;2023-06-22T06:35:12;2.33;;;2.22;;
70667;SDS011;58242;51.250;-1.118;2023-06-22T06:37:39;2.38;;;2.28;;
70667;SDS011;58242;51.250;-1.118;2023-06-22T06:40:06;1.92;;;1.83;;
70667;SDS011;58242;51.250;-1.118;2023-06-22T06:42:39;1.67;;;1.65;;
70667;SDS011;58242;51.250;-1.118;2023-06-22T06:45:09;1.83;;;1.73;;
70667;SDS011;58242;51.250;-1.118;2023-06-22T06:47:54;1.88;;;1.77;;
70667;SDS011;58242;51.250;-1.118;2023-06-22T06:50:19;2.65;;;2.55;;
70667;SDS011;58242;51.250;-1.118;2023-06-22T06:52:45;2.42;;;2.33;;
70667;SDS011;58242;51.250;-1.118;2023-06-22T06:55:10;2.60;;;2.50;;
70667;SDS011;58242;51.250;-1.118;2023-06-22T06:57:37;2.38;;;2.28;;
70667;SDS011;58242;51.250;-1.118;2023-06-22T07:00:06;2.20;;;2.10;;
70667;SDS011;58242;51.250;-1.118;2023-06-22T07:02:37;2.65;;;2.55;;
70667;SDS011;58242;51.250;-1.118;2023-06-22T07:05:05;3.10;;;2.90;;
70667;SDS011;58242;51.250;-1.118;2023-06-22T07:07:30;2.90;;;2.80;;
70667;SDS011;58242;51.250;-1.118;2023-06-22T07:09:56;2.50;;;2.40;;
70667;SDS011;58242;51.250;-1.118;2023-06-22T07:12:21;2.78;;;2.58;;
70667;SDS011;58242;51.250;-1.118;2023-06-22T07:14:47;2.20;;;2.10;;
70667;SDS011;58242;51.250;-1.118;2023-06-22T07:17:12;2.40;;;2.30;;
70667;SDS011;58242;51.250;-1.118;2023-06-22T07:19:37;2.13;;;2.03;;
70667;SDS011;58242;51.250;-1.118;2023-06-22T07:22:03;2.58;;;2.47;;
70667;SDS011;58242;51.250;-1.118;2023-06-22T07:24:29;2.28;;;2.17;;
70667;SDS011;58242;51.250;-1.118;2023-06-22T07:26:54;2.85;;;2.47;;
70667;SDS011;58242;51.250;-1.118;2023-06-22T07:29:22;2.45;;;2.35;;
70667;SDS011;58242;51.250;-1.118;2023-06-22T07:31:48;2.13;;;2.03;;
70667;SDS011;58242;51.250;-1.118;2023-06-22T07:34:16;2.28;;;2.15;;
70667;SDS011;58242;51.250;-1.118;2023-06-22T07:36:41;2.80;;;2.60;;
70667;SDS011;58242;51.250;-1.118;2023-06-22T07:39:07;2.70;;;2.50;;
70667;SDS011;58242;51.250;-1.118;2023-06-22T07:41:32;2.30;;;2.20;;
70667;SDS011;58242;51.250;-1.118;2023-06-22T07:43:57;2.67;;;2.47;;
70667;SDS011;58242;51.250;-1.118;2023-06-22T07:46:23;2.33;;;2.22;;
70667;SDS011;58242;51.250;-1.118;2023-06-22T07:48:48;3.42;;;2.28;;
70667;SDS011;58242;51.250;-1.118;2023-06-22T07:51:14;2.13;;;2.03;;
70667;SDS011;58242;51.250;-1.118;2023-06-22T07:53:40;2.25;;;2.15;;
70667;SDS011;58242;51.250;-1.118;2023-06-22T07:56:06;2.08;;;1.98;;
70667;SDS011;58242;51.250;-1.118;2023-06-22T07:58:32;2.35;;;2.25;;
70667;SDS011;58242;51.250;-1.118;2023-06-22T08:00:58;2.35;;;2.25;;
70667;SDS011;58242;51.250;-1.118;2023-06-22T08:03:23;2.92;;;2.25;;
70667;SDS011;58242;51.250;-1.118;2023-06-22T08:05:48;2.20;;;2.10;;
70667;SDS011;58242;51.250;-1.118;2023-06-22T08:08:14;2.28;;;2.17;;
70667;SDS011;58242;51.250;-1.118;2023-06-22T08:10:40;2.17;;;2.08;;
70667;SDS011;58242;51.250;-1.118;2023-06-22T08:13:07;2.13;;;2.03;;
70667;SDS011;58242;51.250;-1.118;2023-06-22T08:15:32;2.47;;;2.28;;
70667;SDS011;58242;51.250;-1.118;2023-06-22T08:17:57;2.00;;;1.90;;
70667;SDS011;58242;51.250;-1.118;2023-06-22T08:20:24;2.28;;;2.17;;
70667;SDS011;58242;51.250;-1.118;2023-06-22T08:22:49;2.22;;;2.13;;
70667;SDS011;58242;51.250;-1.118;2023-06-22T08:25:14;1.83;;;1.73;;
70667;SDS011;58242;51.250;-1.118;2023-06-22T08:27:40;3.20;;;2.40;;
70667;SDS011;58242;51.250;-1.118;2023-06-22T08:30:06;1.80;;;1.70;;
70667;SDS011;58242;51.250;-1.118;2023-06-22T08:32:32;1.98;;;1.88;;
70667;SDS011;58242;51.250;-1.118;2023-06-22T08:34:57;1.90;;;1.80;;
70667;SDS011;58242;51.250;-1.118;2023-06-22T08:37:23;1.83;;;1.73;;
70667;SDS011;58242;51.250;-1.118;2023-06-22T08:39:58;1.98;;;1.88;;
70667;SDS011;58242;51.250;-1.118;2023-06-22T08:42:24;2.63;;;2.50;;
70667;SDS011;58242;51.250;-1.118;2023-06-22T08:44:50;2.58;;;2.38;;
70667;SDS011;58242;51.250;-1.118;2023-06-22T08:47:16;1.75;;;1.65;;
70667;SDS011;58242;51.250;-1.118;2023-06-22T08:49:41;1.90;;;1.80;;
70667;SDS011;58242;51.250;-1.118;2023-06-22T08:52:07;1.90;;;1.80;;
70667;SDS011;58242;51.250;-1.118;2023-06-22T08:54:32;1.48;;;1.38;;
70667;SDS011;58242;51.250;-1.118;2023-06-22T08:56:59;2.00;;;1.90;;
70667;SDS011;58242;51.250;-1.118;2023-06-22T08:59:25;2.10;;;1.90;;
70667;SDS011;58242;51.250;-1.118;2023-06-22T09:01:51;1.90;;;1.80;;
70667;SDS011;58242;51.250;-1.118;2023-06-22T09:04:16;2.00;;;1.88;;
70667;SDS011;58242;51.250;-1.118;2023-06-22T09:06:41;2.17;;;2.08;;
70667;SDS011;58242;51.250;-1.118;2023-06-22T09:09:12;1.90;;;1.80;;
70667;SDS011;58242;51.250;-1.118;2023-06-22T09:11:38;1.85;;;1.75;;
70667;SDS011;58242;51.250;-1.118;2023-06-22T09:14:03;1.52;;;1.48;;
70667;SDS011;58242;51.250;-1.118;2023-06-22T09:16:29;1.88;;;1.58;;
70667;SDS011;58242;51.250;-1.118;2023-06-22T09:18:54;1.70;;;1.60;;
70667;SDS011;58242;51.250;-1.118;2023-06-22T09:21:20;1.45;;;1.40;;
70667;SDS011;58242;51.250;-1.118;2023-06-22T09:23:45;1.80;;;1.70;;
70667;SDS011;58242;51.250;-1.118;2023-06-22T09:26:15;1.88;;;1.77;;
70667;SDS011;58242;51.250;-1.118;2023-06-22T09:28:40;2.10;;;2.00;;
70667;SDS011;58242;51.250;-1.118;2023-06-22T09:31:05;2.10;;;2.00;;
70667;SDS011;58242;51.250;-1.118;2023-06-22T09:33:32;1.80;;;1.70;;
70667;SDS011;58242;51.250;-1.118;2023-06-22T09:35:57;1.52;;;1.42;;
70667;SDS011;58242;51.250;-1.118;2023-06-22T09:38:23;1.70;;;1.60;;
70667;SDS011;58242;51.250;-1.118;2023-06-22T09:40:48;1.95;;;1.70;;
70667;SDS011;58242;51.250;-1.118;2023-06-22T09:43:13;1.80;;;1.70;;
70667;SDS011;58242;51.250;-1.118;2023-06-22T09:45:39;1.70;;;1.60;;
70667;SDS011;58242;51.250;-1.118;2023-06-22T09:48:04;1.88;;;1.50;;
70667;SDS011;58242;51.250;-1.118;2023-06-22T09:50:30;1.58;;;1.48;;
70667;SDS011;58242;51.250;-1.118;2023-06-22T09:52:56;1.45;;;1.45;;
70667;SDS011;58242;51.250;-1.118;2023-06-22T09:55:22;1.85;;;1.75;;
70667;SDS011;58242;51.250;-1.118;2023-06-22T09:57:47;2.00;;;1.73;;
70667;SDS011;58242;51.250;-1.118;2023-06-22T10:00:14;2.22;;;2.03;;
70667;SDS011;58242;51.250;-1.118;2023-06-22T10:05:07;1.60;;;1.50;;
70667;SDS011;58242;51.250;-1.118;2023-06-22T10:07:33;1.42;;;1.40;;
70667;SDS011;58242;51.250;-1.118;2023-06-22T10:09:58;1.50;;;1.50;;
70667;SDS011;58242;51.250;-1.118;2023-06-22T10:12:24;2.65;;;1.90;;
70667;SDS011;58242;51.250;-1.118;2023-06-22T10:14:50;1.70;;;1.60;;
70667;SDS011;58242;51.250;-1.118;2023-06-22T10:17:15;1.95;;;1.85;;
70667;SDS011;58242;51.250;-1.118;2023-06-22T10:19:41;1.77;;;1.67;;
70667;SDS011;58242;51.250;-1.118;2023-06-22T10:22:06;1.42;;;1.42;;
70667;SDS011;58242;51.250;-1.118;2023-06-22T10:24:32;1.80;;;1.70;;
70667;SDS011;58242;51.250;-1.118;2023-06-22T10:26:58;1.40;;;1.40;;
70667;SDS011;58242;51.250;-1.118;2023-06-22T10:29:23;1.10;;;1.10;;
70667;SDS011;58242;51.250;-1.118;2023-06-22T10:31:49;1.58;;;1.33;;
70667;SDS011;58242;51.250;-1.118;2023-06-22T10:34:14;1.45;;;1.38;;
70667;SDS011;58242;51.250;-1.118;2023-06-22T10:36:40;1.15;;;1.10;;
70667;SDS011;58242;51.250;-1.118;2023-06-22T10:39:05;1.60;;;1.50;;
70667;SDS011;58242;51.250;-1.118;2023-06-22T10:41:31;1.60;;;1.50;;
70667;SDS011;58242;51.250;-1.118;2023-06-22T10:43:57;1.25;;;1.15;;
70667;SDS011;58242;51.250;-1.118;2023-06-22T10:46:24;1.30;;;1.20;;
70667;SDS011;58242;51.250;-1.118;2023-06-22T10:48:51;1.40;;;1.30;;
70667;SDS011;58242;51.250;-1.118;2023-06-22T10:51:19;1.50;;;1.40;;
70667;SDS011;58242;51.250;-1.118;2023-06-22T10:53:45;1.17;;;1.17;;
70667;SDS011;58242;51.250;-1.118;2023-06-22T10:56:10;1.45;;;1.35;;
70667;SDS011;58242;51.250;-1.118;2023-06-22T10:58:36;1.30;;;1.10;;
70667;SDS011;58242;51.250;-1.118;2023-06-22T11:01:01;1.33;;;1.30;;
70667;SDS011;58242;51.250;-1.118;2023-06-22T11:03:28;1.58;;;1.48;;
70667;SDS011;58242;51.250;-1.118;2023-06-22T11:05:54;1.67;;;1.58;;
70667;SDS011;58242;51.250;-1.118;2023-06-22T11:08:19;1.70;;;1.40;;
70667;SDS011;58242;51.250;-1.118;2023-06-22T11:10:44;1.60;;;1.50;;
70667;SDS011;58242;51.250;-1.118;2023-06-22T11:13:10;1.55;;;1.45;;
70667;SDS011;58242;51.250;-1.118;2023-06-22T11:15:36;1.90;;;1.80;;
70667;SDS011;58242;51.250;-1.118;2023-06-22T11:18:01;1.83;;;1.73;;
70667;SDS011;58242;51.250;-1.118;2023-06-22T11:20:27;1.90;;;1.80;;
70667;SDS011;58242;51.250;-1.118;2023-06-22T11:22:52;1.88;;;1.73;;
70667;SDS011;58242;51.250;-1.118;2023-06-22T11:25:18;1.40;;;1.40;;
70667;SDS011;58242;51.250;-1.118;2023-06-22T11:27:43;1.55;;;1.45;;
70667;SDS011;58242;51.250;-1.118;2023-06-22T11:30:09;1.55;;;1.45;;
70667;SDS011;58242;51.250;-1.118;2023-06-22T11:32:34;1.10;;;1.10;;
70667;SDS011;58242;51.250;-1.118;2023-06-22T11:35:00;1.45;;;1.35;;
70667;SDS011;58242;51.250;-1.118;2023-06-22T11:37:26;1.67;;;1.58;;
70667;SDS011;58242;51.250;-1.118;2023-06-22T11:39:52;1.50;;;1.48;;
70667;SDS011;58242;51.250;-1.118;2023-06-22T11:44:45;2.45;;;1.55;;
70667;SDS011;58242;51.250;-1.118;2023-06-22T11:47:11;1.40;;;1.40;;
70667;SDS011;58242;51.250;-1.118;2023-06-22T11:49:36;1.27;;;1.27;;
70667;SDS011;58242;51.250;-1.118;2023-06-22T11:52:02;1.80;;;1.70;;
70667;SDS011;58242;51.250;-1.118;2023-06-22T11:54:27;1.70;;;1.60;;
70667;SDS011;58242;51.250;-1.118;2023-06-22T11:56:53;1.90;;;1.90;;
70667;SDS011;58242;51.250;-1.118;2023-06-22T11:59:18;1.70;;;1.60;;
70667;SDS011;58242;51.250;-1.118;2023-06-22T12:01:44;1.70;;;1.60;;
70667;SDS011;58242;51.250;-1.118;2023-06-22T12:04:09;1.80;;;1.70;;
70667;SDS011;58242;51.250;-1.118;2023-06-22T12:06:37;1.70;;;1.60;;
70667;SDS011;58242;51.250;-1.118;2023-06-22T12:09:06;2.20;;;2.10;;
70667;SDS011;58242;51.250;-1.118;2023-06-22T12:11:32;1.98;;;1.88;;
70667;SDS011;58242;51.250;-1.118;2023-06-22T12:13:57;1.75;;;1.65;;
70667;SDS011;58242;51.250;-1.118;2023-06-22T12:16:26;1.60;;;1.50;;
70667;SDS011;58242;51.250;-1.118;2023-06-22T12:18:52;1.50;;;1.50;;
70667;SDS011;58242;51.250;-1.118;2023-06-22T12:21:18;2.05;;;1.63;;
70667;SDS011;58242;51.250;-1.118;2023-06-22T12:23:44;1.48;;;1.48;;
70667;SDS011;58242;51.250;-1.118;2023-06-22T12:26:09;1.45;;;1.35;;
70667;SDS011;58242;51.250;-1.118;2023-06-22T12:28:35;1.40;;;1.30;;
70667;SDS011;58242;51.250;-1.118;2023-06-22T12:31:00;1.15;;;1.15;;
70667;SDS011;58242;51.250;-1.118;2023-06-22T12:33:26;1.50;;;1.40;;
70667;SDS011;58242;51.250;-1.118;2023-06-22T12:35:51;1.50;;;1.40;;
70667;SDS011;58242;51.250;-1.118;2023-06-22T12:38:17;1.55;;;1.45;;
70667;SDS011;58242;51.250;-1.118;2023-06-22T12:40:42;1.63;;;1.50;;
70667;SDS011;58242;51.250;-1.118;2023-06-22T12:43:07;1.88;;;1.77;;
70667;SDS011;58242;51.250;-1.118;2023-06-22T12:45:33;2.15;;;1.60;;
70667;SDS011;58242;51.250;-1.118;2023-06-22T12:48:00;1.63;;;1.52;;
70667;SDS011;58242;51.250;-1.118;2023-06-22T12:50:25;1.40;;;1.30;;
70667;SDS011;58242;51.250;-1.118;2023-06-22T12:52:51;1.27;;;1.27;;
70667;SDS011;58242;51.250;-1.118;2023-06-22T12:55:16;1.80;;;1.70;;
70667;SDS011;58242;51.250;-1.118;2023-06-22T12:57:42;1.60;;;1.50;;
70667;SDS011;58242;51.250;-1.118;2023-06-22T13:00:08;1.58;;;1.48;;
70667;SDS011;58242;51.250;-1.118;2023-06-22T13:02:35;2.08;;;1.50;;
70667;SDS011;58242;51.250;-1.118;2023-06-22T13:05:02;1.45;;;1.35;;
70667;SDS011;58242;51.250;-1.118;2023-06-22T13:07:27;1.63;;;1.52;;
70667;SDS011;58242;51.250;-1.118;2023-06-22T13:09:53;1.90;;;1.80;;
70667;SDS011;58242;51.250;-1.118;2023-06-22T13:12:21;1.65;;;1.55;;
70667;SDS011;58242;51.250;-1.118;2023-06-22T13:14:47;1.55;;;1.45;;
70667;SDS011;58242;51.250;-1.118;2023-06-22T13:17:13;1.30;;;1.30;;
70667;SDS011;58242;51.250;-1.118;2023-06-22T13:19:39;1.80;;;1.70;;
70667;SDS011;58242;51.250;-1.118;2023-06-22T13:22:24;1.83;;;1.73;;
70667;SDS011;58242;51.250;-1.118;2023-06-22T13:24:58;1.42;;;1.40;;
70667;SDS011;58242;51.250;-1.118;2023-06-22T13:27:24;1.48;;;1.38;;
70667;SDS011;58242;51.250;-1.118;2023-06-22T13:29:50;1.77;;;1.60;;
70667;SDS011;58242;51.250;-1.118;2023-06-22T13:32:16;1.30;;;1.30;;
70667;SDS011;58242;51.250;-1.118;2023-06-22T13:34:41;2.17;;;1.40;;
70667;SDS011;58242;51.250;-1.118;2023-06-22T13:37:07;1.73;;;1.63;;
70667;SDS011;58242;51.250;-1.118;2023-06-22T13:39:33;1.50;;;1.40;;
70667;SDS011;58242;51.250;-1.118;2023-06-22T13:41:58;1.45;;;1.35;;
70667;SDS011;58242;51.250;-1.118;2023-06-22T13:44:24;1.35;;;1.33;;
70667;SDS011;58242;51.250;-1.118;2023-06-22T13:46:53;2.67;;;1.33;;
70667;SDS011;58242;51.250;-1.118;2023-06-22T13:49:22;1.20;;;1.20;;
70667;SDS011;58242;51.250;-1.118;2023-06-22T13:51:48;1.40;;;1.40;;
70667;SDS011;58242;51.250;-1.118;2023-06-22T13:54:14;1.42;;;1.33;;
70667;SDS011;58242;51.250;-1.118;2023-06-22T13:56:40;1.70;;;1.60;;
70667;SDS011;58242;51.250;-1.118;2023-06-22T13:59:05;1.48;;;1.38;;
70667;SDS011;58242;51.250;-1.118;2023-06-22T14:01:34;1.98;;;1.70;;
70667;SDS011;58242;51.250;-1.118;2023-06-22T14:04:00;1.83;;;1.73;;
70667;SDS011;58242;51.250;-1.118;2023-06-22T14:06:26;1.60;;;1.50;;
70667;SDS011;58242;51.250;-1.118;2023-06-22T14:08:52;1.25;;;1.25;;
70667;SDS011;58242;51.250;-1.118;2023-06-22T14:11:17;1.48;;;1.45;;
70667;SDS011;58242;51.250;-1.118;2023-06-22T14:13:43;1.52;;;1.42;;
70667;SDS011;58242;51.250;-1.118;2023-06-22T14:16:08;1.70;;;1.60;;
70667;SDS011;58242;51.250;-1.118;2023-06-22T14:18:34;1.20;;;1.20;;
70667;SDS011;58242;51.250;-1.118;2023-06-22T14:20:59;1.50;;;1.40;;
70667;SDS011;58242;51.250;-1.118;2023-06-22T14:23:25;1.30;;;1.20;;
70667;SDS011;58242;51.250;-1.118;2023-06-22T14:25:50;1.30;;;1.23;;
70667;SDS011;58242;51.250;-1.118;2023-06-22T14:28:15;1.10;;;1.10;;
70667;SDS011;58242;51.250;-1.118;2023-06-22T14:30:41;1.27;;;1.25;;
70667;SDS011;58242;51.250;-1.118;2023-06-22T14:33:07;1.38;;;1.38;;
70667;SDS011;58242;51.250;-1.118;2023-06-22T14:35:33;1.20;;;1.17;;
70667;SDS011;58242;51.250;-1.118;2023-06-22T14:37:58;2.08;;;1.70;;
70667;SDS011;58242;51.250;-1.118;2023-06-22T14:40:24;1.55;;;1.45;;
70667;SDS011;58242;51.250;-1.118;2023-06-22T14:42:49;1.20;;;1.20;;